Time;durP1;ratioP1;P1;durP2;ratioP2;P2;SDS_P1;SDS_P2;PMS_P1;PMS_P2;Temp;Humidity;BMP_temperature;BMP_pressure;BME280_temperature;BME280_humidity;BME280_pressure;Samples;Min_cycle;Max_cycle;Signal;HPM_P1;HPM_P2
2023/12/10 00:00:12;;;;;;;;;;;;;;;8.19;100.00;99779.31;4973809;28;20367;-72
2023/12/10 00:02:37;;;;;;;;;;;;;;;8.18;100.00;99790.13;4987590;28;19925;-72
2023/12/10 00:05:03;;;;;;;;;;;;;;;8.16;100.00;99778.72;4990471;28;19937;-74
2023/12/10 00:07:28;;;;;;;;;;;;;;;8.15;100.00;99780.56;4984593;28;20183;-76
2023/12/10 00:09:53;;;;;;;;;;;;;;;8.06;100.00;99784.88;4984842;28;19922;-72
2023/12/10 00:12:18;;;;;;;;;;;;;;;8.07;100.00;99780.34;4972875;28;19928;-73
2023/12/10 00:14:46;;;;;;;;;;;;;;;8.10;100.00;99769.41;4986912;28;19970;-73
2023/12/10 00:17:11;;;;;;;;;;;;;;;8.25;100.00;99768.09;4988516;28;19926;-75
2023/12/10 00:19:36;;;;;;;;;;;;;;;8.14;100.00;99781.53;4974768;28;19928;-73
2023/12/10 00:22:01;;;;;;;;;;;;;;;8.15;100.00;99771.69;4984211;28;19979;-73
2023/12/10 00:24:27;;;;;;;;;;;;;;;8.16;100.00;99784.06;4987941;28;20226;-70
2023/12/10 00:26:52;;;;;;;;;;;;;;;8.24;100.00;99773.56;4970897;28;19921;-73
2023/12/10 00:29:17;;;;;;;;;;;;;;;8.20;100.00;99790.84;4975623;28;19967;-72
2023/12/10 00:31:43;;;;;;;;;;;;;;;8.32;100.00;99787.16;4991328;28;19921;-75
2023/12/10 00:34:09;;;;;;;;;;;;;;;8.35;100.00;99791.38;4990117;28;19965;-72
2023/12/10 00:36:34;;;;;;;;;;;;;;;8.30;100.00;99802.47;4989054;28;19921;-72
2023/12/10 00:38:59;;;;;;;;;;;;;;;8.28;100.00;99804.44;4991633;28;19928;-73
2023/12/10 00:41:25;;;;;;;;;;;;;;;8.40;100.00;99807.88;4993428;28;19972;-74
2023/12/10 00:43:50;;;;;;;;;;;;;;;8.48;100.00;99800.06;4993145;28;19999;-74
2023/12/10 00:46:15;;;;;;;;;;;;;;;8.41;100.00;99802.41;4990074;28;20003;-75
2023/12/10 00:48:40;;;;;;;;;;;;;;;8.46;100.00;99798.47;4988032;28;20019;-73
2023/12/10 00:51:06;;;;;;;;;;;;;;;8.37;100.00;99825.03;4989319;28;19921;-73
2023/12/10 00:53:31;;;;;;;;;;;;;;;8.43;100.00;99817.47;4975073;28;20235;-75
2023/12/10 00:55:56;;;;;;;;;;;;;;;8.43;100.00;99825.50;4986889;28;20369;-73
2023/12/10 00:58:22;;;;;;;;;;;;;;;8.26;100.00;99822.44;4993700;28;19921;-74
2023/12/10 01:00:47;;;;;;;;;;;;;;;8.15;100.00;99830.50;4991277;28;20368;-73
2023/12/10 01:03:12;;;;;;;;;;;;;;;8.07;100.00;99848.06;4991057;28;20587;-74
2023/12/10 01:05:37;;;;;;;;;;;;;;;7.94;100.00;99828.66;4990074;28;20608;-75
2023/12/10 01:08:03;;;;;;;;;;;;;;;7.98;100.00;99840.78;4993093;28;20423;-76
2023/12/10 01:10:28;;;;;;;;;;;;;;;7.78;100.00;99837.09;4993925;28;19968;-75
2023/12/10 01:12:53;;;;;;;;;;;;;;;7.79;100.00;99838.78;4994610;28;19932;-75
2023/12/10 01:15:29;;;;;;;;;;;;;;;7.55;100.00;99838.97;4996556;28;20299;-74
2023/12/10 01:17:54;;;;;;;;;;;;;;;7.56;100.00;99841.50;4996138;28;19921;-76
2023/12/10 01:20:20;;;;;;;;;;;;;;;7.60;100.00;99844.78;4994196;28;19940;-75
2023/12/10 01:22:45;;;;;;;;;;;;;;;7.65;100.00;99853.25;4996303;28;19925;-76
2023/12/10 01:25:13;;;;;;;;;;;;;;;7.68;100.00;99858.38;4997879;28;19956;-73
2023/12/10 01:27:39;;;;;;;;;;;;;;;7.61;100.00;99846.47;4980180;28;19933;-74
2023/12/10 01:30:05;;;;;;;;;;;;;;;7.56;100.00;99862.00;4996513;28;20015;-74
2023/12/10 01:32:30;;;;;;;;;;;;;;;7.60;100.00;99859.00;4995989;28;20035;-75
2023/12/10 01:34:55;;;;;;;;;;;;;;;7.59;100.00;99851.94;4997271;28;19925;-76
2023/12/10 01:37:20;;;;;;;;;;;;;;;7.58;100.00;99860.94;4993490;28;19925;-73
2023/12/10 01:39:45;;;;;;;;;;;;;;;7.29;100.00;99812.53;4996241;28;20268;-73
2023/12/10 01:42:11;;;;;;;;;;;;;;;7.61;100.00;99868.72;4994839;28;20246;-74
2023/12/10 01:44:36;;;;;;;;;;;;;;;7.57;100.00;99869.94;4996425;28;20399;-71
2023/12/10 01:47:01;;;;;;;;;;;;;;;7.50;100.00;99872.25;4980324;28;19944;-75
2023/12/10 01:49:28;;;;;;;;;;;;;;;7.48;100.00;99871.53;4995927;28;19932;-75
2023/12/10 01:51:53;;;;;;;;;;;;;;;7.36;100.00;99885.84;4995098;28;20373;-72
2023/12/10 01:54:22;;;;;;;;;;;;;;;7.28;100.00;99880.28;4995000;28;19964;-75
2023/12/10 01:56:48;;;;;;;;;;;;;;;7.20;100.00;99875.53;4994459;28;20020;-74
2023/12/10 01:59:13;;;;;;;;;;;;;;;7.26;100.00;99896.41;4975865;28;19956;-73
2023/12/10 02:01:38;;;;;;;;;;;;;;;7.30;100.00;99886.31;4996972;28;19929;-73
2023/12/10 02:04:05;;;;;;;;;;;;;;;7.14;100.00;99870.69;5017386;23;20398;-76
2023/12/10 02:06:30;;;;;;;;;;;;;;;7.06;100.00;99865.94;5008184;28;19921;-76
2023/12/10 02:08:56;;;;;;;;;;;;;;;7.04;100.00;99867.88;5008323;28;20315;-74
2023/12/10 02:11:21;;;;;;;;;;;;;;;6.88;100.00;99862.91;4992181;28;20163;-73
2023/12/10 02:13:46;;;;;;;;;;;;;;;6.88;100.00;99863.75;5009345;28;19976;-72
2023/12/10 02:16:12;;;;;;;;;;;;;;;6.93;100.00;99876.72;5014404;28;19944;-74
2023/12/10 02:18:37;;;;;;;;;;;;;;;7.02;100.00;99876.00;5015414;28;19964;-74
2023/12/10 02:21:02;;;;;;;;;;;;;;;6.98;100.00;99866.53;4992816;28;20048;-72
2023/12/10 02:23:31;;;;;;;;;;;;;;;7.01;100.00;99876.97;4992313;28;20387;-73
2023/12/10 02:25:56;;;;;;;;;;;;;;;7.07;100.00;99869.47;4994599;28;20048;-73
2023/12/10 02:28:22;;;;;;;;;;;;;;;7.03;100.00;99871.50;4995934;28;21383;-72
2023/12/10 02:30:47;;;;;;;;;;;;;;;7.02;100.00;99880.50;5011644;28;19931;-72
2023/12/10 02:33:12;;;;;;;;;;;;;;;7.00;100.00;99882.47;5006876;28;19921;-73
2023/12/10 02:35:37;;;;;;;;;;;;;;;7.03;100.00;99880.38;5015176;28;19920;-73
2023/12/10 02:38:04;;;;;;;;;;;;;;;6.97;100.00;99885.38;5013681;28;20325;-75
2023/12/10 02:40:29;;;;;;;;;;;;;;;7.01;100.00;99890.34;4991691;28;20285;-73
2023/12/10 02:42:54;;;;;;;;;;;;;;;6.97;100.00;99898.72;5010944;28;19959;-72
2023/12/10 02:45:19;;;;;;;;;;;;;;;7.00;100.00;99887.78;5006040;28;19968;-74
2023/12/10 02:47:45;;;;;;;;;;;;;;;6.88;100.00;99900.28;5010512;28;20107;-72
2023/12/10 02:50:10;;;;;;;;;;;;;;;6.86;100.00;99902.22;5013314;28;19925;-74
2023/12/10 02:52:38;;;;;;;;;;;;;;;6.83;100.00;99908.63;5012973;28;20019;-74
2023/12/10 02:55:04;;;;;;;;;;;;;;;6.80;100.00;99922.19;4991595;28;19926;-74
2023/12/10 02:57:29;;;;;;;;;;;;;;;6.89;100.00;99904.63;5004331;28;19921;-73
2023/12/10 02:59:54;;;;;;;;;;;;;;;6.77;100.00;99901.06;5010967;28;19921;-73
2023/12/10 03:02:20;;;;;;;;;;;;;;;6.82;100.00;99904.25;4997439;28;19953;-75
2023/12/10 03:04:45;;;;;;;;;;;;;;;6.88;100.00;99914.44;4992197;28;20011;-73
2023/12/10 03:07:10;;;;;;;;;;;;;;;6.83;100.00;99911.28;5011596;28;19936;-76
2023/12/10 03:09:36;;;;;;;;;;;;;;;6.81;100.00;99923.88;5024922;28;20288;-74
2023/12/10 03:12:01;;;;;;;;;;;;;;;6.77;100.00;99925.09;5007995;28;19924;-73
2023/12/10 03:14:26;;;;;;;;;;;;;;;6.86;100.00;99927.06;4995812;28;19925;-76
2023/12/10 03:16:51;;;;;;;;;;;;;;;6.76;100.00;99915.38;5010702;28;19960;-75
2023/12/10 03:19:16;;;;;;;;;;;;;;;6.74;100.00;99901.34;5011231;28;20012;-73
2023/12/10 03:21:42;;;;;;;;;;;;;;;6.72;100.00;99932.63;5007677;28;19921;-75
2023/12/10 03:24:07;;;;;;;;;;;;;;;6.83;100.00;99937.13;5009144;28;19953;-76
2023/12/10 03:26:32;;;;;;;;;;;;;;;6.97;100.00;99950.25;4996361;28;20233;-77
2023/12/10 03:28:57;;;;;;;;;;;;;;;6.95;100.00;99930.00;5010474;28;19925;-73
2023/12/10 03:31:22;;;;;;;;;;;;;;;7.05;100.00;99936.31;5011362;28;19942;-77
2023/12/10 03:33:50;;;;;;;;;;;;;;;7.16;100.00;99938.13;4994882;28;19936;-75
2023/12/10 03:36:15;;;;;;;;;;;;;;;7.11;100.00;99948.34;5009181;28;19932;-77
2023/12/10 03:38:41;;;;;;;;;;;;;;;7.25;100.00;99936.59;5012065;28;19925;-74
2023/12/10 03:41:06;;;;;;;;;;;;;;;7.12;100.00;99934.88;4993724;28;19921;-74
2023/12/10 03:43:31;;;;;;;;;;;;;;;7.35;100.00;99946.44;5006558;28;19936;-73
2023/12/10 03:45:56;;;;;;;;;;;;;;;7.38;100.00;99966.69;5007710;28;20335;-76
2023/12/10 03:48:22;;;;;;;;;;;;;;;7.39;100.00;99935.50;4995416;28;20007;-73
2023/12/10 03:50:47;;;;;;;;;;;;;;;7.44;100.00;99947.50;5005000;28;20363;-73
2023/12/10 03:53:12;;;;;;;;;;;;;;;7.59;100.00;99956.13;5007763;28;20389;-72
2023/12/10 03:55:38;;;;;;;;;;;;;;;7.84;100.00;99958.66;5009764;28;19921;-75
2023/12/10 03:58:03;;;;;;;;;;;;;;;7.52;100.00;99944.22;4991960;28;19926;-73
2023/12/10 04:00:29;;;;;;;;;;;;;;;7.52;100.00;99964.78;5011734;28;19921;-73
2023/12/10 04:02:55;;;;;;;;;;;;;;;7.56;100.00;99950.16;5003479;28;20296;-74
2023/12/10 04:05:20;;;;;;;;;;;;;;;7.37;100.00;99956.97;5009409;28;20012;-73
2023/12/10 04:07:47;;;;;;;;;;;;;;;7.38;100.00;99960.50;5007734;28;20322;-74
2023/12/10 04:10:13;;;;;;;;;;;;;;;7.63;100.00;99951.38;5010646;28;20002;-74
2023/12/10 04:12:38;;;;;;;;;;;;;;;7.67;100.00;99984.91;5010818;28;20221;-75
2023/12/10 04:15:04;;;;;;;;;;;;;;;7.60;100.00;99960.50;5001894;28;19925;-73
2023/12/10 04:17:29;;;;;;;;;;;;;;;7.63;100.00;99970.97;5012150;28;19925;-73
2023/12/10 04:19:54;;;;;;;;;;;;;;;7.79;100.00;99975.06;5010441;28;19956;-73
2023/12/10 04:22:19;;;;;;;;;;;;;;;8.07;100.00;99984.41;5006198;28;20362;-73
2023/12/10 04:24:45;;;;;;;;;;;;;;;8.08;100.00;99991.41;5008745;28;20439;-73
2023/12/10 04:27:10;;;;;;;;;;;;;;;8.14;100.00;99970.50;5006660;28;20451;-73
2023/12/10 04:29:36;;;;;;;;;;;;;;;8.12;100.00;99992.03;5008238;28;19931;-72
2023/12/10 04:32:02;;;;;;;;;;;;;;;8.11;100.00;99985.00;5010358;28;20079;-73
2023/12/10 04:34:27;;;;;;;;;;;;;;;8.06;100.00;99993.41;5005669;28;19929;-73
2023/12/10 04:36:52;;;;;;;;;;;;;;;8.20;100.00;99980.72;5008625;28;19917;-73
2023/12/10 04:39:19;;;;;;;;;;;;;;;8.13;100.00;99996.41;5007922;28;19956;-73
2023/12/10 04:41:44;;;;;;;;;;;;;;;8.19;100.00;100008.44;5004548;28;20455;-72
2023/12/10 04:44:09;;;;;;;;;;;;;;;7.94;100.00;100008.59;4997177;28;20435;-74
2023/12/10 04:46:34;;;;;;;;;;;;;;;8.00;100.00;100022.41;5013014;28;20462;-74
2023/12/10 04:49:00;;;;;;;;;;;;;;;8.03;100.00;100032.88;5013900;28;20359;-74
2023/12/10 04:51:25;;;;;;;;;;;;;;;8.26;100.00;100021.16;5015477;28;19921;-73
2023/12/10 04:53:50;;;;;;;;;;;;;;;8.20;100.00;100023.50;5007581;28;20029;-73
2023/12/10 04:56:16;;;;;;;;;;;;;;;8.30;100.00;100031.63;5011517;28;19921;-74
2023/12/10 04:58:41;;;;;;;;;;;;;;;8.20;100.00;100039.53;5028275;28;20290;-73
2023/12/10 05:01:07;;;;;;;;;;;;;;;8.21;100.00;100026.03;5011185;28;19921;-73
2023/12/10 05:03:32;;;;;;;;;;;;;;;8.17;100.00;100051.34;5018146;28;19972;-72
2023/12/10 05:05:57;;;;;;;;;;;;;;;8.33;100.00;100040.25;5009706;28;20271;-73
2023/12/10 05:08:22;;;;;;;;;;;;;;;8.28;100.00;100044.25;5008453;28;19924;-73
2023/12/10 05:10:48;;;;;;;;;;;;;;;8.27;100.00;100040.75;5012102;28;19979;-74
2023/12/10 05:13:13;;;;;;;;;;;;;;;8.33;100.00;100045.63;5028110;28;20011;-73
2023/12/10 05:15:38;;;;;;;;;;;;;;;8.28;100.00;100074.53;5013884;28;20019;-72
2023/12/10 05:18:03;;;;;;;;;;;;;;;8.35;100.00;100059.69;5027123;28;19920;-73
2023/12/10 05:20:29;;;;;;;;;;;;;;;8.40;100.00;100070.03;5007036;28;19921;-72
2023/12/10 05:22:54;;;;;;;;;;;;;;;8.35;100.00;100061.53;5013227;28;19921;-72
2023/12/10 05:25:19;;;;;;;;;;;;;;;8.38;100.00;100070.13;5009126;28;20415;-73
2023/12/10 05:27:44;;;;;;;;;;;;;;;8.28;100.00;100068.34;5017045;28;20950;-73
2023/12/10 05:30:11;;;;;;;;;;;;;;;8.33;100.00;100093.75;5015624;28;19925;-73
2023/12/10 05:32:36;;;;;;;;;;;;;;;8.38;100.00;100085.34;5007507;28;19921;-74
2023/12/10 05:35:02;;;;;;;;;;;;;;;8.45;100.00;100086.56;5006095;28;19930;-73
2023/12/10 05:37:27;;;;;;;;;;;;;;;8.50;100.00;100096.91;5010523;28;19932;-73
2023/12/10 05:39:52;;;;;;;;;;;;;;;8.49;100.00;100104.06;5003505;28;19917;-75
2023/12/10 05:42:17;;;;;;;;;;;;;;;8.42;100.00;100102.84;5012043;28;19928;-72
2023/12/10 05:44:43;;;;;;;;;;;;;;;8.34;100.00;100098.09;5009027;28;19971;-74
2023/12/10 05:47:08;;;;;;;;;;;;;;;8.34;100.00;100111.47;5010691;28;19953;-73
2023/12/10 05:49:33;;;;;;;;;;;;;;;8.41;100.00;100117.22;4993866;28;20017;-72
2023/12/10 05:51:58;;;;;;;;;;;;;;;8.48;100.00;100117.56;5013229;28;20011;-72
2023/12/10 05:54:23;;;;;;;;;;;;;;;8.44;100.00;100118.78;5006065;28;19928;-73
2023/12/10 05:56:49;;;;;;;;;;;;;;;8.35;100.00;100137.25;5007518;28;19927;-71
2023/12/10 05:59:15;;;;;;;;;;;;;;;8.36;100.00;100122.91;5005726;28;19924;-73
2023/12/10 06:01:40;;;;;;;;;;;;;;;8.38;100.00;100142.38;4990520;28;19929;-72
2023/12/10 06:04:05;;;;;;;;;;;;;;;8.43;100.00;100134.00;4994404;28;19947;-73
2023/12/10 06:06:30;;;;;;;;;;;;;;;8.39;100.00;100152.09;5007836;28;19948;-72
2023/12/10 06:08:55;;;;;;;;;;;;;;;8.49;100.00;100170.13;5008536;28;20392;-72
2023/12/10 06:11:21;;;;;;;;;;;;;;;8.59;100.00;100165.75;5005366;28;19991;-73
2023/12/10 06:13:46;;;;;;;;;;;;;;;8.54;100.00;100182.16;4997538;28;20007;-73
2023/12/10 06:16:11;;;;;;;;;;;;;;;8.53;100.00;100198.34;5010918;28;20383;-73
2023/12/10 06:18:37;;;;;;;;;;;;;;;8.50;100.00;100202.09;5011562;28;20716;-74
2023/12/10 06:21:02;;;;;;;;;;;;;;;8.46;100.00;100200.63;5010974;28;19956;-73
2023/12/10 06:23:27;;;;;;;;;;;;;;;8.48;100.00;100187.13;4988993;28;19925;-72
2023/12/10 06:25:52;;;;;;;;;;;;;;;8.43;100.00;100208.03;5011973;28;20011;-74
2023/12/10 06:28:17;;;;;;;;;;;;;;;8.44;100.00;100217.75;5009083;28;19969;-72
2023/12/10 06:30:43;;;;;;;;;;;;;;;8.35;100.00;100205.97;5005941;28;19925;-73
2023/12/10 06:33:08;;;;;;;;;;;;;;;8.43;100.00;100210.69;5011998;28;19917;-73
2023/12/10 06:35:33;;;;;;;;;;;;;;;8.40;100.00;100226.03;5003426;28;20287;-72
2023/12/10 06:37:58;;;;;;;;;;;;;;;8.46;100.00;100234.53;4996690;28;19942;-72
2023/12/10 06:40:24;;;;;;;;;;;;;;;8.36;100.00;100219.19;5009612;28;20020;-73
2023/12/10 06:42:49;;;;;;;;;;;;;;;8.43;100.00;100266.88;5009772;28;19921;-71
2023/12/10 06:45:14;;;;;;;;;;;;;;;8.49;100.00;100259.25;4995834;28;19921;-73
2023/12/10 06:47:40;;;;;;;;;;;;;;;8.44;100.00;100258.75;5006879;28;20323;-72
2023/12/10 06:50:06;;;;;;;;;;;;;;;8.46;100.00;100269.31;5004863;28;19922;-76
2023/12/10 06:52:31;;;;;;;;;;;;;;;8.43;100.00;100293.63;5009258;28;19925;-71
2023/12/10 06:54:56;;;;;;;;;;;;;;;8.41;100.00;100250.97;5009468;28;19924;-73
2023/12/10 06:57:21;;;;;;;;;;;;;;;8.47;100.00;100287.06;5007934;28;19921;-72
2023/12/10 06:59:47;;;;;;;;;;;;;;;8.49;100.00;100290.53;5010325;28;20078;-72
2023/12/10 07:02:12;;;;;;;;;;;;;;;8.46;100.00;100301.41;5002064;28;19921;-72
2023/12/10 07:04:37;;;;;;;;;;;;;;;8.47;100.00;100313.84;5012379;28;20016;-74
2023/12/10 07:07:02;;;;;;;;;;;;;;;8.47;100.00;100312.03;5008581;28;19925;-73
2023/12/10 07:09:27;;;;;;;;;;;;;;;8.43;100.00;100307.00;5006937;28;19925;-73
2023/12/10 07:11:53;;;;;;;;;;;;;;;8.32;100.00;100303.34;5004986;28;20039;-72
2023/12/10 07:14:18;;;;;;;;;;;;;;;8.41;100.00;100316.00;5005100;28;20316;-72
2023/12/10 07:16:43;;;;;;;;;;;;;;;8.41;100.00;100329.38;5012199;28;19921;-71
2023/12/10 07:19:09;;;;;;;;;;;;;;;8.35;100.00;100327.16;5009960;28;21437;-72
2023/12/10 07:21:34;;;;;;;;;;;;;;;8.25;100.00;100313.66;5012979;28;19920;-72
2023/12/10 07:23:59;;;;;;;;;;;;;;;8.40;100.00;100335.69;5006958;28;19924;-72
2023/12/10 07:26:33;;;;;;;;;;;;;;;8.30;100.00;100332.03;5048438;27;20025;-71
2023/12/10 07:28:58;;;;;;;;;;;;;;;8.36;100.00;100360.13;5030004;28;19981;-72
2023/12/10 07:31:24;;;;;;;;;;;;;;;8.41;100.00;100372.19;5063133;28;20469;-72
2023/12/10 07:33:49;;;;;;;;;;;;;;;8.34;100.00;100370.94;5078065;28;19921;-71
2023/12/10 07:36:14;;;;;;;;;;;;;;;8.38;100.00;100384.94;5077556;28;19920;-74
2023/12/10 07:38:39;;;;;;;;;;;;;;;8.38;100.00;100368.91;5062137;28;20409;-72
2023/12/10 07:41:05;;;;;;;;;;;;;;;8.44;100.00;100389.84;5061860;28;20326;-72
2023/12/10 07:43:33;;;;;;;;;;;;;;;8.36;100.00;100386.88;5050519;28;20767;-71
2023/12/10 07:45:58;;;;;;;;;;;;;;;8.39;100.00;100386.66;5049212;28;19971;-72
2023/12/10 07:48:23;;;;;;;;;;;;;;;8.36;100.00;100403.78;5048567;28;19921;-72
2023/12/10 07:50:48;;;;;;;;;;;;;;;8.30;100.00;100412.28;5048818;28;19924;-72
2023/12/10 07:53:14;;;;;;;;;;;;;;;8.35;100.00;100409.25;5048380;28;19943;-71
2023/12/10 07:55:39;;;;;;;;;;;;;;;8.33;100.00;100404.03;5082299;28;19925;-72
2023/12/10 07:58:04;;;;;;;;;;;;;;;8.31;100.00;100414.00;5078035;28;19921;-72
2023/12/10 08:00:30;;;;;;;;;;;;;;;8.32;100.00;100418.38;5054272;28;20010;-72
2023/12/10 08:02:55;;;;;;;;;;;;;;;8.33;100.00;100424.56;5062773;28;19927;-73
2023/12/10 08:05:20;;;;;;;;;;;;;;;8.37;100.00;100434.06;5049105;28;20046;-72
2023/12/10 08:07:45;;;;;;;;;;;;;;;8.31;100.00;100431.84;5044985;28;19944;-72
2023/12/10 08:10:11;;;;;;;;;;;;;;;8.32;100.00;100444.25;5057926;28;20342;-72
2023/12/10 08:12:36;;;;;;;;;;;;;;;8.40;100.00;100453.41;5057464;28;20361;-72
2023/12/10 08:15:01;;;;;;;;;;;;;;;8.35;100.00;100446.72;5042441;28;20545;-72
2023/12/10 08:17:26;;;;;;;;;;;;;;;8.36;100.00;100449.25;5005586;28;19928;-72
2023/12/10 08:19:52;;;;;;;;;;;;;;;8.32;100.00;100457.63;5024332;28;19928;-72
2023/12/10 08:22:17;;;;;;;;;;;;;;;8.33;100.00;100443.28;5011352;28;19960;-72
2023/12/10 08:24:43;;;;;;;;;;;;;;;8.28;100.00;100461.50;5027075;28;20035;-72
2023/12/10 08:27:08;;;;;;;;;;;;;;;8.33;100.00;100462.88;5043626;28;19937;-72
2023/12/10 08:29:33;;;;;;;;;;;;;;;8.37;100.00;100460.81;5025301;28;19928;-73
2023/12/10 08:31:58;;;;;;;;;;;;;;;8.33;100.00;100475.38;5036840;28;19925;-72
2023/12/10 08:34:23;;;;;;;;;;;;;;;8.40;100.00;100461.44;5028988;28;19943;-72
2023/12/10 08:36:49;;;;;;;;;;;;;;;8.45;100.00;100478.97;5021870;28;20006;-72
2023/12/10 08:39:14;;;;;;;;;;;;;;;8.39;100.00;100473.09;5015052;28;20011;-72
2023/12/10 08:41:39;;;;;;;;;;;;;;;8.44;100.00;100470.09;5013260;28;19933;-72
2023/12/10 08:44:04;;;;;;;;;;;;;;;8.48;100.00;100482.28;5047179;28;19925;-72
2023/12/10 08:46:29;;;;;;;;;;;;;;;8.52;100.00;100490.97;5025490;28;19983;-72
2023/12/10 08:48:55;;;;;;;;;;;;;;;8.49;100.00;100501.88;4998232;28;20032;-73
2023/12/10 08:51:20;;;;;;;;;;;;;;;8.43;100.00;100507.66;5017395;28;19925;-72
2023/12/10 08:53:45;;;;;;;;;;;;;;;8.37;100.00;100503.63;4998277;28;19921;-72
2023/12/10 08:56:11;;;;;;;;;;;;;;;8.41;100.00;100511.28;5026551;28;19932;-73
2023/12/10 08:58:36;;;;;;;;;;;;;;;8.46;100.00;100521.69;4999588;28;19927;-72
2023/12/10 09:01:01;;;;;;;;;;;;;;;8.43;100.00;100521.91;5012531;28;20848;-72
2023/12/10 09:03:26;;;;;;;;;;;;;;;8.46;100.00;100520.81;5029882;28;20016;-72
2023/12/10 09:05:52;;;;;;;;;;;;;;;8.47;100.00;100515.38;5027652;28;19925;-71
2023/12/10 09:08:17;;;;;;;;;;;;;;;8.44;100.00;100515.59;5009214;28;20024;-71
2023/12/10 09:10:42;;;;;;;;;;;;;;;8.53;100.00;100516.75;5008485;28;20012;-71
2023/12/10 09:13:07;;;;;;;;;;;;;;;8.45;100.00;100528.00;5026303;28;20323;-72
2023/12/10 09:15:33;;;;;;;;;;;;;;;8.45;100.00;100536.03;5024383;28;19925;-72
2023/12/10 09:17:58;;;;;;;;;;;;;;;8.43;100.00;100534.41;5007932;28;20284;-72
2023/12/10 09:20:23;;;;;;;;;;;;;;;8.45;100.00;100533.34;5025856;28;20273;-71
2023/12/10 09:22:48;;;;;;;;;;;;;;;8.47;100.00;100533.22;5024933;28;19921;-70
2023/12/10 09:25:14;;;;;;;;;;;;;;;8.52;100.00;100531.09;5025323;28;19968;-71
2023/12/10 09:27:40;;;;;;;;;;;;;;;8.53;100.00;100540.84;5013964;28;19925;-71
2023/12/10 09:30:05;;;;;;;;;;;;;;;8.48;100.00;100541.16;5028496;28;19921;-72
2023/12/10 09:32:30;;;;;;;;;;;;;;;8.54;100.00;100543.38;5017174;28;19948;-71
2023/12/10 09:34:56;;;;;;;;;;;;;;;8.52;100.00;100548.00;5024509;28;19927;-71
2023/12/10 09:37:21;;;;;;;;;;;;;;;8.48;100.00;100546.50;5027397;28;19948;-72
2023/12/10 09:39:46;;;;;;;;;;;;;;;8.51;100.00;100561.50;5016420;28;20149;-75
2023/12/10 09:42:12;;;;;;;;;;;;;;;8.51;100.00;100545.44;5038919;28;20326;-74
2023/12/10 09:44:37;;;;;;;;;;;;;;;8.53;100.00;100556.88;5033312;28;20024;-73
2023/12/10 09:47:03;;;;;;;;;;;;;;;8.55;100.00;100565.66;5028089;28;19925;-73
2023/12/10 09:49:30;;;;;;;;;;;;;;;8.56;100.00;100570.03;4993767;28;19927;-73
2023/12/10 09:51:55;;;;;;;;;;;;;;;8.56;100.00;100567.38;4997479;28;20031;-73
2023/12/10 09:54:20;;;;;;;;;;;;;;;8.60;100.00;100557.28;5032904;28;20561;-75
2023/12/10 09:56:49;;;;;;;;;;;;;;;8.63;100.00;100557.06;5016035;28;20596;-73
2023/12/10 09:59:14;;;;;;;;;;;;;;;8.58;100.00;100557.41;5024093;28;19940;-74
2023/12/10 10:01:43;;;;;;;;;;;;;;;8.67;100.00;100571.94;5043263;28;19929;-72
2023/12/10 10:04:08;;;;;;;;;;;;;;;8.63;100.00;100568.59;5026627;28;19917;-73
2023/12/10 10:06:34;;;;;;;;;;;;;;;8.66;100.00;100573.72;5023538;28;19928;-73
2023/12/10 10:08:59;;;;;;;;;;;;;;;8.66;100.00;100562.19;5007965;28;19921;-73
2023/12/10 10:11:24;;;;;;;;;;;;;;;8.65;100.00;100569.34;5015724;28;20279;-73
2023/12/10 10:13:51;;;;;;;;;;;;;;;8.74;100.00;100581.19;5008861;28;20419;-73
2023/12/10 10:16:16;;;;;;;;;;;;;;;8.74;100.00;100580.34;5014708;28;19921;-74
2023/12/10 10:18:43;;;;;;;;;;;;;;;8.74;100.00;100593.72;5044700;28;19963;-75
2023/12/10 10:21:09;;;;;;;;;;;;;;;8.71;100.00;100589.47;5031763;28;19917;-75
2023/12/10 10:23:34;;;;;;;;;;;;;;;8.72;100.00;100580.47;5041968;28;19921;-74
2023/12/10 10:26:00;;;;;;;;;;;;;;;8.72;100.00;100569.78;5030181;28;19921;-74
2023/12/10 10:28:25;;;;;;;;;;;;;;;8.77;100.00;100582.81;5010964;28;19948;-74
2023/12/10 10:30:50;;;;;;;;;;;;;;;8.85;100.00;100573.22;5010637;28;20187;-73
2023/12/10 10:33:15;;;;;;;;;;;;;;;8.94;100.00;100557.44;4993856;28;19987;-75
2023/12/10 10:35:40;;;;;;;;;;;;;;;8.94;100.00;100566.31;5009146;28;20051;-74
2023/12/10 10:38:06;;;;;;;;;;;;;;;8.99;100.00;100558.78;5040524;28;20074;-75
2023/12/10 10:40:31;;;;;;;;;;;;;;;8.95;100.00;100572.53;5026329;28;20564;-74
2023/12/10 10:42:56;;;;;;;;;;;;;;;8.89;100.00;100536.34;4997524;28;20430;-72
2023/12/10 10:45:21;;;;;;;;;;;;;;;9.21;100.00;100561.66;5027242;28;19968;-73
2023/12/10 10:47:47;;;;;;;;;;;;;;;9.59;100.00;100572.09;5012200;28;19921;-73
2023/12/10 10:50:12;;;;;;;;;;;;;;;9.65;100.00;100572.59;5013851;28;19964;-74
2023/12/10 10:52:37;;;;;;;;;;;;;;;9.40;100.00;100580.72;5011847;28;20012;-74
2023/12/10 10:55:02;;;;;;;;;;;;;;;9.50;100.00;100563.94;5012014;28;20014;-74
2023/12/10 10:57:31;;;;;;;;;;;;;;;9.32;100.00;100574.25;5026052;28;20025;-75
2023/12/10 10:59:56;;;;;;;;;;;;;;;9.37;100.00;100582.78;4992680;28;20015;-76
2023/12/10 11:02:22;;;;;;;;;;;;;;;9.70;100.00;100576.63;5021884;28;20324;-72
2023/12/10 11:04:48;;;;;;;;;;;;;;;9.80;100.00;100568.69;4993569;28;20260;-74
2023/12/10 11:07:14;;;;;;;;;;;;;;;9.82;100.00;100576.59;5040732;28;20095;-74
2023/12/10 11:09:53;;;;;;;;;;;;;;;10.05;100.00;100567.63;5028148;28;20003;-74
2023/12/10 11:12:37;;;;;;;;;;;;;;;10.26;100.00;100558.81;5024529;28;19990;-74
2023/12/10 11:15:03;;;;;;;;;;;;;;;10.57;100.00;100542.03;5010316;28;20487;-75
2023/12/10 11:17:28;;;;;;;;;;;;;;;10.86;100.00;100536.09;5022418;28;19925;-73
2023/12/10 11:19:57;;;;;;;;;;;;;;;11.03;100.00;100535.50;5022768;28;19982;-74
2023/12/10 11:22:22;;;;;;;;;;;;;;;12.16;100.00;100535.69;5026766;28;20322;-74
2023/12/10 11:24:49;;;;;;;;;;;;;;;12.33;100.00;100549.44;5012122;28;19921;-75
2023/12/10 11:27:14;;;;;;;;;;;;;;;12.30;100.00;100550.59;5023443;28;20012;-75
2023/12/10 11:29:39;;;;;;;;;;;;;;;12.29;100.00;100544.38;5009350;28;20047;-76
2023/12/10 11:32:05;;;;;;;;;;;;;;;12.29;100.00;100536.31;5024341;28;20477;-74
2023/12/10 11:34:31;;;;;;;;;;;;;;;11.96;100.00;100545.50;5021555;28;19979;-73
2023/12/10 11:36:56;;;;;;;;;;;;;;;12.56;100.00;100548.25;5021010;28;19928;-74
2023/12/10 11:39:21;;;;;;;;;;;;;;;12.79;100.00;100549.81;5010077;28;19956;-74
2023/12/10 11:41:46;;;;;;;;;;;;;;;12.27;100.00;100545.47;5015787;28;20325;-72
2023/12/10 11:44:12;;;;;;;;;;;;;;;11.82;100.00;100557.47;5005554;28;19925;-74
2023/12/10 11:46:37;;;;;;;;;;;;;;;11.39;100.00;100540.53;5026281;28;20450;-74
2023/12/10 11:49:03;;;;;;;;;;;;;;;12.37;100.00;100537.44;5024702;28;19921;-73
2023/12/10 11:51:28;;;;;;;;;;;;;;;12.43;100.00;100529.66;5008430;28;20346;-73
2023/12/10 11:53:53;;;;;;;;;;;;;;;13.08;100.00;100530.09;5026770;28;20032;-74
2023/12/10 11:56:19;;;;;;;;;;;;;;;13.48;100.00;100529.06;5011261;28;19929;-74
2023/12/10 11:58:44;;;;;;;;;;;;;;;14.13;100.00;100527.38;5010884;28;19921;-72
2023/12/10 12:01:09;;;;;;;;;;;;;;;13.50;100.00;100509.03;4993236;28;20011;-73
2023/12/10 12:03:34;;;;;;;;;;;;;;;12.09;100.00;100540.78;5010285;28;19925;-73
2023/12/10 12:06:00;;;;;;;;;;;;;;;12.05;100.00;100549.25;5009315;28;19925;-73
2023/12/10 12:08:28;;;;;;;;;;;;;;;12.09;100.00;100546.16;5021060;28;19987;-74
2023/12/10 12:10:53;;;;;;;;;;;;;;;12.45;100.00;100537.59;5009451;28;19990;-74
2023/12/10 12:13:19;;;;;;;;;;;;;;;11.67;100.00;100536.31;5009209;28;19921;-72
2023/12/10 12:15:45;;;;;;;;;;;;;;;11.18;100.00;100538.72;5013488;28;19971;-73
2023/12/10 12:18:10;;;;;;;;;;;;;;;10.65;100.00;100537.75;5036685;28;19931;-72
2023/12/10 12:20:36;;;;;;;;;;;;;;;10.44;100.00;100539.53;5016750;28;19925;-73
2023/12/10 12:23:01;;;;;;;;;;;;;;;10.31;100.00;100542.31;5010789;28;19949;-73
2023/12/10 12:25:27;;;;;;;;;;;;;;;10.14;100.00;100543.69;5015946;28;20380;-73
2023/12/10 12:27:52;;;;;;;;;;;;;;;10.03;100.00;100544.56;5012174;28;20310;-73
2023/12/10 12:30:18;;;;;;;;;;;;;;;9.92;100.00;100536.53;5012327;28;20314;-74